Time;durP1;ratioP1;P1;durP2;ratioP2;P2;SDS_P1;SDS_P2;PMS_P1;PMS_P2;Temp;Humidity;BMP_temperature;BMP_pressure;BME280_temperature;BME280_humidity;BME280_pressure;Samples;Min_cycle;Max_cycle;Signal;HPM_P1;HPM_P2
2022/05/09 00:01:52;;;;;;;5.00;4.60;;;20.10;52.30;;;;;;5052117;28;20208;-70
2022/05/09 00:04:20;;;;;;;4.80;4.40;;;20.10;52.80;;;;;;5053441;28;20202;-70
2022/05/09 00:06:48;;;;;;;5.03;4.72;;;20.10;52.40;;;;;;5052435;28;20266;-70
2022/05/09 00:09:16;;;;;;;5.00;4.60;;;20.10;52.50;;;;;;5052903;28;20257;-70
2022/05/09 00:11:43;;;;;;;5.00;4.60;;;20.10;53.00;;;;;;5052367;28;20310;-70
2022/05/09 00:14:10;;;;;;;5.15;4.75;;;20.00;52.40;;;;;;5052011;28;20710;-71
2022/05/09 00:16:37;;;;;;;5.18;4.78;;;20.00;52.40;;;;;;5051874;28;20211;-70
2022/05/09 00:19:05;;;;;;;4.95;4.55;;;20.00;52.40;;;;;;5051961;28;20652;-70
2022/05/09 00:21:34;;;;;;;5.13;4.75;;;20.00;52.40;;;;;;5051897;28;20218;-70
2022/05/09 00:24:01;;;;;;;4.90;4.53;;;20.00;52.40;;;;;;5052009;28;20262;-70
2022/05/09 00:26:31;;;;;;;4.90;4.45;;;20.00;52.40;;;;;;5052153;28;20685;-71
2022/05/09 00:28:58;;;;;;;5.30;4.90;;;20.00;52.40;;;;;;5051956;28;20191;-70
2022/05/09 00:31:25;;;;;;;4.90;4.50;;;20.00;52.30;;;;;;5051683;28;20229;-70
2022/05/09 00:33:53;;;;;;;5.13;4.72;;;19.90;52.90;;;;;;5052904;28;20199;-70
2022/05/09 00:36:21;;;;;;;4.68;4.38;;;19.90;52.40;;;;;;5057175;28;20199;-70
2022/05/09 00:38:50;;;;;;;5.20;4.80;;;19.90;52.40;;;;;;5056811;28;20213;-72
2022/05/09 00:41:34;;;;;;;5.38;4.97;;;19.90;52.40;;;;;;5055522;28;20257;-70
2022/05/09 00:44:02;;;;;;;4.85;4.35;;;19.90;52.40;;;;;;5055591;28;20199;-70
2022/05/09 00:46:29;;;;;;;4.90;4.60;;;19.90;52.40;;;;;;5056705;28;20613;-71
2022/05/09 00:48:57;;;;;;;4.80;4.50;;;19.80;52.40;;;;;;5055405;28;20199;-70
2022/05/09 00:51:25;;;;;;;4.75;4.40;;;19.80;52.40;;;;;;5056532;28;20214;-70
2022/05/09 00:53:53;;;;;;;5.10;4.70;;;19.80;52.30;;;;;;5055492;28;20199;-70
2022/05/09 00:56:21;;;;;;;4.60;4.15;;;19.80;52.40;;;;;;5055322;28;20226;-70
2022/05/09 00:58:50;;;;;;;4.97;4.47;;;19.80;52.50;;;;;;5055206;28;20210;-70
2022/05/09 01:01:17;;;;;;;4.75;4.45;;;19.80;52.30;;;;;;5055147;28;20192;-70
2022/05/09 01:03:46;;;;;;;4.70;4.40;;;19.80;52.40;;;;;;5055159;28;20690;-70
2022/05/09 01:06:13;;;;;;;4.82;4.43;;;19.80;52.40;;;;;;5055025;28;20246;-69
2022/05/09 01:08:41;;;;;;;5.00;4.60;;;19.80;52.40;;;;;;5055953;28;20290;-70
2022/05/09 01:11:10;;;;;;;4.95;4.55;;;19.80;52.90;;;;;;5056089;28;20208;-70
2022/05/09 01:13:40;;;;;;;4.72;4.43;;;19.70;52.30;;;;;;5056255;28;20168;-70
2022/05/09 01:16:08;;;;;;;5.05;4.65;;;19.70;52.40;;;;;;5054920;28;20207;-70
2022/05/09 01:18:36;;;;;;;4.95;4.65;;;19.70;52.20;;;;;;5056208;28;20219;-70
2022/05/09 01:21:03;;;;;;;4.70;4.40;;;19.70;52.20;;;;;;5056358;28;20726;-70
2022/05/09 01:23:35;;;;;;;5.18;4.78;;;19.70;52.20;;;;;;5054803;28;20286;-70
2022/05/09 01:26:02;;;;;;;5.05;4.65;;;19.70;52.30;;;;;;5054915;28;20199;-70
2022/05/09 01:28:29;;;;;;;4.85;4.45;;;19.70;52.20;;;;;;5055937;28;20184;-70
2022/05/09 01:30:58;;;;;;;5.05;4.63;;;19.70;52.20;;;;;;5055816;28;20211;-69
2022/05/09 01:33:27;;;;;;;5.13;4.70;;;19.60;52.20;;;;;;5054605;28;20274;-70
2022/05/09 01:35:55;;;;;;;5.43;4.93;;;19.60;52.20;;;;;;5055685;28;20555;-70
2022/05/09 01:38:26;;;;;;;4.72;4.43;;;19.60;52.10;;;;;;5054498;28;20204;-70
2022/05/09 01:40:54;;;;;;;4.70;4.40;;;19.60;52.30;;;;;;5054527;28;20568;-70
2022/05/09 01:43:33;;;;;;;4.50;4.20;;;19.60;52.20;;;;;;5055667;28;20211;-70
2022/05/09 01:46:00;;;;;;;5.13;4.72;;;19.60;52.90;;;;;;5053369;28;20203;-70
2022/05/09 01:51:11;;;;;;;4.60;4.30;;;19.60;52.20;;;;;;5054075;28;20306;-70
2022/05/09 01:53:38;;;;;;;4.85;4.55;;;19.60;52.30;;;;;;5055392;28;20198;-70
2022/05/09 01:56:06;;;;;;;5.22;4.68;;;19.60;52.30;;;;;;5054173;28;20196;-70
2022/05/09 01:58:33;;;;;;;5.07;4.65;;;19.50;52.00;;;;;;5054352;28;20199;-70
2022/05/09 02:01:00;;;;;;;5.10;4.80;;;19.50;52.10;;;;;;5054157;28;20240;-70
2022/05/09 02:03:27;;;;;;;4.90;4.50;;;19.50;52.00;;;;;;5055136;28;20217;-70
2022/05/09 02:05:58;;;;;;;4.75;4.40;;;19.50;52.00;;;;;;5054099;28;20306;-70
2022/05/09 02:08:25;;;;;;;4.70;4.28;;;19.50;52.20;;;;;;5054091;28;20225;-70
2022/05/09 02:10:52;;;;;;;4.90;4.60;;;19.50;52.20;;;;;;5053831;28;20642;-70
2022/05/09 02:13:21;;;;;;;5.10;4.70;;;19.40;51.90;;;;;;5055074;28;20218;-71
2022/05/09 02:15:48;;;;;;;4.78;4.40;;;19.40;52.10;;;;;;5053786;28;20679;-70
2022/05/09 02:18:15;;;;;;;4.95;4.65;;;19.40;52.10;;;;;;5053820;28;20569;-70
2022/05/09 02:20:42;;;;;;;5.20;4.80;;;19.40;52.10;;;;;;5053712;28;20199;-70
2022/05/09 02:23:09;;;;;;;5.28;4.53;;;19.40;52.20;;;;;;5053537;28;20218;-70
2022/05/09 02:25:37;;;;;;;4.80;4.50;;;19.40;52.00;;;;;;5053659;28;20289;-70
2022/05/09 02:28:07;;;;;;;4.50;4.20;;;19.40;52.20;;;;;;5053632;28;20206;-70
2022/05/09 02:30:36;;;;;;;4.72;4.43;;;19.40;52.20;;;;;;5053526;28;20202;-70
2022/05/09 02:33:03;;;;;;;5.13;4.72;;;19.40;52.20;;;;;;5053506;28;20723;-70
2022/05/09 02:35:30;;;;;;;5.18;4.72;;;19.40;52.70;;;;;;5054771;28;20215;-70
2022/05/09 02:37:57;;;;;;;4.60;4.30;;;19.40;52.00;;;;;;5053367;28;20210;-70
2022/05/09 02:40:24;;;;;;;5.38;4.97;;;19.40;52.10;;;;;;5054860;28;20207;-70
2022/05/09 02:42:52;;;;;;;4.80;4.50;;;19.40;52.10;;;;;;5053564;28;20640;-66
2022/05/09 02:45:19;;;;;;;4.40;4.10;;;19.40;52.10;;;;;;5053257;28;20206;-66
2022/05/09 02:47:47;;;;;;;4.93;4.57;;;19.30;52.10;;;;;;5053379;28;20616;-66
2022/05/09 02:50:15;;;;;;;4.47;4.18;;;19.30;52.00;;;;;;5054540;28;20203;-67
2022/05/09 02:52:43;;;;;;;4.50;4.20;;;19.30;52.00;;;;;;5053066;28;20227;-67
2022/05/09 02:55:11;;;;;;;4.60;4.30;;;19.30;52.00;;;;;;5053345;28;20604;-67
2022/05/09 02:57:38;;;;;;;4.68;4.38;;;19.30;52.00;;;;;;5054176;28;20278;-66
2022/05/09 03:00:09;;;;;;;5.00;4.63;;;19.30;51.90;;;;;;5052906;28;20195;-66
2022/05/09 03:02:36;;;;;;;4.57;4.28;;;19.30;51.90;;;;;;5052868;28;20210;-66
2022/05/09 03:05:04;;;;;;;4.63;4.22;;;19.30;52.10;;;;;;5052970;28;20298;-66
2022/05/09 03:07:31;;;;;;;4.25;3.95;;;19.30;52.00;;;;;;5052791;28;20223;-66
2022/05/09 03:09:59;;;;;;;4.60;4.30;;;19.20;51.90;;;;;;5053974;28;20187;-66
2022/05/09 03:12:26;;;;;;;4.88;4.53;;;19.30;51.80;;;;;;5052568;28;20692;-66
2022/05/09 03:14:53;;;;;;;4.38;4.03;;;19.20;51.70;;;;;;5053817;28;20664;-66
2022/05/09 03:17:21;;;;;;;4.78;4.47;;;19.20;51.70;;;;;;5053860;28;20176;-66
2022/05/09 03:19:48;;;;;;;5.00;4.50;;;19.20;51.90;;;;;;5052482;28;20200;-66
2022/05/09 03:22:17;;;;;;;4.55;4.22;;;19.20;52.00;;;;;;5053595;28;20286;-66
2022/05/09 03:24:44;;;;;;;4.60;4.30;;;19.30;52.10;;;;;;5052431;28;20199;-66
2022/05/09 03:27:14;;;;;;;5.00;4.60;;;19.30;52.00;;;;;;5052395;28;20571;-66
2022/05/09 03:29:41;;;;;;;4.78;4.38;;;19.20;52.10;;;;;;5052570;28;20260;-68
2022/05/09 03:32:09;;;;;;;5.18;4.68;;;19.30;52.20;;;;;;5052311;28;20223;-69
2022/05/09 03:34:36;;;;;;;4.82;4.53;;;19.20;52.10;;;;;;5052240;28;20200;-69
2022/05/09 03:37:03;;;;;;;4.20;3.90;;;19.20;52.00;;;;;;5053733;28;20199;-69
2022/05/09 03:39:32;;;;;;;4.85;4.45;;;19.20;52.10;;;;;;5052244;28;20576;-69
2022/05/09 03:41:58;;;;;;;4.78;4.45;;;19.20;52.00;;;;;;5052061;28;20234;-69
2022/05/09 03:44:25;;;;;;;5.03;4.63;;;19.30;52.00;;;;;;5053366;28;20194;-69
2022/05/09 03:46:52;;;;;;;4.85;4.50;;;19.20;52.10;;;;;;5052269;28;20305;-69
2022/05/09 03:49:20;;;;;;;4.43;4.13;;;19.20;51.80;;;;;;5053461;28;20660;-69
2022/05/09 03:51:47;;;;;;;4.90;4.60;;;19.30;52.50;;;;;;5051945;28;20234;-69
2022/05/09 03:54:17;;;;;;;4.53;4.15;;;19.30;51.90;;;;;;5052596;28;20211;-69
2022/05/09 03:56:45;;;;;;;5.20;4.80;;;19.20;51.90;;;;;;5052055;28;20310;-69
2022/05/09 03:59:12;;;;;;;4.88;4.28;;;19.20;51.70;;;;;;5051948;28;20225;-69
2022/05/09 04:01:40;;;;;;;4.45;4.10;;;19.20;51.80;;;;;;5051859;28;20707;-70
2022/05/09 04:04:07;;;;;;;4.60;4.30;;;19.20;51.70;;;;;;5052305;28;20256;-69
2022/05/09 04:06:35;;;;;;;4.53;4.13;;;19.30;51.60;;;;;;5051798;28;20198;-69
2022/05/09 04:09:05;;;;;;;4.18;3.88;;;19.30;51.50;;;;;;5053678;28;20183;-69
2022/05/09 04:11:32;;;;;;;4.63;4.28;;;19.30;51.40;;;;;;5056539;28;20231;-69
2022/05/09 04:14:00;;;;;;;4.50;4.15;;;19.30;51.60;;;;;;5056275;28;20199;-72
2022/05/09 04:19:12;;;;;;;4.93;4.40;;;19.30;51.50;;;;;;5057126;28;20194;-73
2022/05/09 04:21:39;;;;;;;6.57;4.88;;;19.30;51.50;;;;;;5055961;28;20261;-72
2022/05/09 04:24:07;;;;;;;5.15;4.75;;;19.30;52.00;;;;;;5056387;28;20195;-72
2022/05/09 04:26:33;;;;;;;5.43;4.93;;;19.30;52.10;;;;;;5055856;28;20599;-73
2022/05/09 04:29:02;;;;;;;5.35;4.95;;;19.30;52.70;;;;;;5055741;28;20199;-72
2022/05/09 04:31:29;;;;;;;5.80;5.32;;;19.30;53.00;;;;;;5055667;28;20234;-73
2022/05/09 04:33:56;;;;;;;5.20;4.80;;;19.30;52.80;;;;;;5055941;28;20759;-73
2022/05/09 04:36:23;;;;;;;5.07;4.57;;;19.30;52.90;;;;;;5056394;28;20212;-73
2022/05/09 04:38:51;;;;;;;4.80;4.40;;;19.40;53.20;;;;;;5088901;22;20247;-69
2022/05/09 04:41:19;;;;;;;4.95;4.55;;;19.40;52.80;;;;;;5056375;28;20626;-69
2022/05/09 04:43:46;;;;;;;6.15;4.43;;;19.40;54.10;;;;;;5055578;28;20199;-69
2022/05/09 04:46:15;;;;;;;5.18;4.72;;;19.40;53.80;;;;;;5055847;28;20195;-68
2022/05/09 04:48:42;;;;;;;5.18;4.78;;;19.50;54.40;;;;;;5055430;28;20278;-69
2022/05/09 04:51:09;;;;;;;5.38;4.97;;;19.60;53.80;;;;;;5055415;28;20191;-67
2022/05/09 04:53:36;;;;;;;5.20;4.80;;;19.60;54.30;;;;;;5057740;28;20270;-69
2022/05/09 04:56:03;;;;;;;5.28;4.78;;;19.80;54.30;;;;;;5057307;28;20572;-72
2022/05/09 04:58:30;;;;;;;4.97;4.57;;;19.90;53.50;;;;;;5055351;28;20223;-72
2022/05/09 05:00:57;;;;;;;4.80;4.43;;;20.00;52.90;;;;;;5055195;28;20249;-72
2022/05/09 05:03:26;;;;;;;5.82;4.72;;;20.10;52.90;;;;;;5058412;28;20381;-73
2022/05/09 05:05:53;;;;;;;4.70;4.40;;;20.20;52.90;;;;;;5054893;28;20207;-73
2022/05/09 05:08:20;;;;;;;4.93;4.53;;;20.30;52.90;;;;;;5054894;28;20265;-72
2022/05/09 05:10:52;;;;;;;5.07;4.57;;;20.50;51.30;;;;;;5055044;28;20226;-73
2022/05/09 05:13:20;;;;;;;5.38;4.85;;;20.60;51.20;;;;;;5054879;28;20219;-74
2022/05/09 05:15:48;;;;;;;5.00;4.60;;;20.80;51.10;;;;;;5055099;28;20202;-73
2022/05/09 05:18:15;;;;;;;5.43;4.93;;;20.90;50.80;;;;;;5055100;28;20249;-71
2022/05/09 05:20:43;;;;;;;4.70;4.30;;;21.10;50.50;;;;;;5056162;28;20223;-71
2022/05/09 05:23:10;;;;;;;5.03;4.53;;;21.20;50.10;;;;;;5054790;28;20314;-71
2022/05/09 05:25:40;;;;;;;4.65;4.35;;;21.40;49.90;;;;;;5056133;28;20195;-70
2022/05/09 05:28:08;;;;;;;4.80;4.40;;;21.50;49.50;;;;;;5055203;28;20199;-70
2022/05/09 05:30:35;;;;;;;5.32;4.82;;;21.60;49.20;;;;;;5055213;28;20261;-71
2022/05/09 05:33:04;;;;;;;5.10;4.60;;;21.80;48.90;;;;;;5054722;28;20219;-70
2022/05/09 05:35:31;;;;;;;5.68;5.18;;;21.90;48.70;;;;;;5054690;28;20231;-71
2022/05/09 05:37:59;;;;;;;5.93;5.32;;;22.00;48.50;;;;;;5054363;28;20304;-70
2022/05/09 05:40:26;;;;;;;5.55;5.05;;;22.00;48.20;;;;;;5054642;28;20210;-71
2022/05/09 05:42:53;;;;;;;6.35;5.32;;;22.20;48.60;;;;;;5054948;28;20237;-67
2022/05/09 05:45:23;;;;;;;5.72;4.78;;;22.30;47.70;;;;;;5056438;28;20223;-67
2022/05/09 05:47:50;;;;;;;4.80;4.28;;;22.40;47.40;;;;;;5054465;28;20307;-67
2022/05/09 05:50:19;;;;;;;5.13;4.72;;;22.50;47.30;;;;;;5054348;28;20203;-67
2022/05/09 05:52:46;;;;;;;5.07;4.57;;;22.60;47.30;;;;;;5054085;28;20759;-68
2022/05/09 05:55:18;;;;;;;5.53;4.63;;;22.70;47.00;;;;;;5054294;28;20195;-67
2022/05/09 05:57:46;;;;;;;6.30;5.32;;;22.80;46.90;;;;;;5054297;28;20687;-67
2022/05/09 06:00:15;;;;;;;5.53;5.05;;;22.90;46.60;;;;;;5054271;28;20731;-67
2022/05/09 06:02:45;;;;;;;5.15;4.75;;;23.00;46.60;;;;;;5055593;28;20688;-68
2022/05/09 06:05:13;;;;;;;5.25;4.65;;;23.10;46.20;;;;;;5054079;28;20195;-67
2022/05/09 06:07:41;;;;;;;5.22;4.63;;;23.20;46.70;;;;;;5054022;28;20245;-67
2022/05/09 06:10:09;;;;;;;5.25;4.70;;;23.20;45.70;;;;;;5054459;28;20273;-67
2022/05/09 06:12:38;;;;;;;5.90;4.93;;;23.40;45.60;;;;;;5053829;28;20225;-67
2022/05/09 06:17:50;;;;;;;5.60;5.03;;;23.50;45.00;;;;;;5053891;28;20191;-67
2022/05/09 06:20:17;;;;;;;5.32;4.63;;;23.60;44.80;;;;;;5053844;28;20206;-67
2022/05/09 06:22:45;;;;;;;5.38;4.65;;;23.70;44.50;;;;;;5053607;28;20589;-67
2022/05/09 06:25:14;;;;;;;5.15;4.65;;;23.80;44.30;;;;;;5053885;28;20199;-67
2022/05/09 06:27:43;;;;;;;5.30;4.80;;;23.90;44.20;;;;;;5053601;28;20199;-66
2022/05/09 06:30:12;;;;;;;5.22;4.47;;;24.00;44.00;;;;;;5053632;28;20202;-68
2022/05/09 06:32:39;;;;;;;6.50;5.18;;;24.10;43.80;;;;;;5052898;28;20220;-67
2022/05/09 06:35:08;;;;;;;5.82;4.60;;;24.10;43.60;;;;;;5053919;28;20639;-67
2022/05/09 06:37:35;;;;;;;5.53;4.97;;;24.20;43.40;;;;;;5053523;28;20679;-67
2022/05/09 06:40:03;;;;;;;5.35;4.70;;;24.30;43.20;;;;;;5053228;28;20217;-67
2022/05/09 06:42:30;;;;;;;4.57;4.18;;;24.40;43.00;;;;;;5053237;28;20639;-67
2022/05/09 06:44:58;;;;;;;4.47;4.05;;;24.50;42.90;;;;;;5053205;28;20674;-67
2022/05/09 06:47:26;;;;;;;5.40;4.20;;;24.50;42.60;;;;;;5053373;28;20555;-67
2022/05/09 06:49:53;;;;;;;5.32;4.32;;;24.60;42.40;;;;;;5053185;28;20661;-68
2022/05/09 06:52:20;;;;;;;6.25;4.75;;;24.70;42.20;;;;;;5052980;28;20243;-67
2022/05/09 06:54:47;;;;;;;6.25;4.68;;;24.70;42.00;;;;;;5053103;28;20650;-68
2022/05/09 06:57:14;;;;;;;5.88;4.60;;;24.90;42.50;;;;;;5054292;28;20183;-67
2022/05/09 06:59:43;;;;;;;4.80;4.28;;;24.90;41.70;;;;;;5052976;28;20253;-67
2022/05/09 07:02:15;;;;;;;6.28;4.53;;;25.00;41.60;;;;;;5052888;28;20234;-67
2022/05/09 07:04:43;;;;;;;5.38;4.55;;;25.00;41.40;;;;;;5052976;28;20206;-67
2022/05/09 07:07:10;;;;;;;7.32;4.95;;;25.10;41.90;;;;;;5052890;28;20657;-67
2022/05/09 07:09:38;;;;;;;6.38;4.40;;;25.20;41.10;;;;;;5052895;28;20230;-67
2022/05/09 07:12:07;;;;;;;6.55;4.72;;;25.20;41.10;;;;;;5052585;28;20253;-67
2022/05/09 07:14:34;;;;;;;5.05;4.20;;;25.30;40.80;;;;;;5053550;28;20549;-67
2022/05/09 07:17:02;;;;;;;8.48;4.60;;;25.40;40.90;;;;;;5052675;28;20540;-67
2022/05/09 07:19:31;;;;;;;6.80;4.63;;;25.40;40.90;;;;;;5052760;28;20210;-67
2022/05/09 07:21:58;;;;;;;5.00;4.50;;;25.50;40.80;;;;;;5052781;28;20309;-67
2022/05/09 07:24:25;;;;;;;5.95;4.22;;;25.50;40.50;;;;;;5052530;28;20648;-67
2022/05/09 07:26:53;;;;;;;5.32;4.22;;;25.60;40.50;;;;;;5052462;28;20202;-67
2022/05/09 07:29:20;;;;;;;6.13;4.50;;;25.60;40.30;;;;;;5052461;28;20200;-67
2022/05/09 07:31:48;;;;;;;4.30;3.90;;;25.60;40.40;;;;;;5052325;28;20695;-68
2022/05/09 07:34:15;;;;;;;4.72;4.32;;;25.70;40.50;;;;;;5052392;28;20212;-67
2022/05/09 07:36:43;;;;;;;6.00;4.30;;;25.80;40.50;;;;;;5052656;28;20194;-67
2022/05/09 07:39:11;;;;;;;4.30;3.90;;;25.80;40.50;;;;;;5052269;28;20229;-67
2022/05/09 07:41:39;;;;;;;4.43;4.03;;;25.90;40.60;;;;;;5052281;28;20250;-69
2022/05/09 07:44:06;;;;;;;4.95;4.45;;;25.90;40.60;;;;;;5051379;28;20295;-67
2022/05/09 07:46:34;;;;;;;4.72;4.32;;;25.90;40.60;;;;;;5052241;28;20203;-67
2022/05/09 07:49:01;;;;;;;4.60;4.20;;;26.00;40.50;;;;;;5052127;28;20230;-67
2022/05/09 07:51:28;;;;;;;4.70;4.03;;;26.00;40.50;;;;;;5052224;28;20708;-67
2022/05/09 07:53:57;;;;;;;4.32;3.92;;;26.10;40.40;;;;;;5052830;28;20687;-68
2022/05/09 07:56:24;;;;;;;5.35;4.45;;;26.10;40.40;;;;;;5052187;28;20235;-67
2022/05/09 07:58:52;;;;;;;5.40;4.20;;;26.10;40.20;;;;;;5052164;28;20203;-67
2022/05/09 08:01:19;;;;;;;4.70;3.92;;;26.20;40.20;;;;;;5052070;28;20206;-67
2022/05/09 08:03:46;;;;;;;4.32;3.83;;;26.20;40.30;;;;;;5052002;28;20656;-69
2022/05/09 08:06:13;;;;;;;4.10;3.65;;;26.20;40.30;;;;;;5052215;28;20249;-67
2022/05/09 08:08:40;;;;;;;4.55;3.55;;;26.20;41.00;;;;;;5052089;28;20257;-68
2022/05/09 08:11:11;;;;;;;4.38;3.97;;;26.20;40.20;;;;;;5053382;28;20183;-67
2022/05/09 08:13:39;;;;;;;4.20;3.72;;;26.30;40.20;;;;;;5052472;28;20216;-68
2022/05/09 08:16:06;;;;;;;4.38;3.97;;;26.30;40.20;;;;;;5052277;28;20196;-68
2022/05/09 08:18:33;;;;;;;5.68;4.05;;;26.30;40.10;;;;;;5052197;28;20293;-67
2022/05/09 08:21:01;;;;;;;4.35;3.70;;;26.30;40.00;;;;;;5051913;28;20191;-69
2022/05/09 08:23:30;;;;;;;4.35;3.95;;;26.40;39.90;;;;;;5051892;28;20313;-68
2022/05/09 08:25:58;;;;;;;3.88;3.47;;;26.40;40.50;;;;;;5052067;28;20202;-67
2022/05/09 08:28:26;;;;;;;5.68;4.13;;;26.40;39.80;;;;;;5052113;28;20203;-67
2022/05/09 08:30:54;;;;;;;4.45;4.05;;;26.40;39.60;;;;;;5051819;28;20227;-67
2022/05/09 08:33:24;;;;;;;4.32;3.88;;;26.50;39.60;;;;;;5051752;28;20302;-68
2022/05/09 08:35:52;;;;;;;4.70;3.90;;;26.40;39.50;;;;;;5052093;28;20195;-68
2022/05/09 08:38:20;;;;;;;4.15;3.60;;;26.50;39.50;;;;;;5053145;28;20261;-68
2022/05/09 08:40:53;;;;;;;4.28;3.88;;;26.50;39.50;;;;;;5052787;28;20629;-67
2022/05/09 08:43:27;;;;;;;4.05;3.63;;;26.50;39.40;;;;;;5052297;28;20265;-68
2022/05/09 08:45:58;;;;;;;3.78;3.47;;;26.50;39.30;;;;;;5052378;28;20237;-68
2022/05/09 08:48:33;;;;;;;4.00;3.70;;;26.60;40.00;;;;;;5052196;28;20238;-67
2022/05/09 08:51:08;;;;;;;4.05;3.70;;;26.60;39.30;;;;;;5051698;28;20194;-67
2022/05/09 08:53:37;;;;;;;4.60;3.88;;;26.60;39.30;;;;;;5051664;28;20687;-67
2022/05/09 08:56:05;;;;;;;3.92;3.60;;;26.60;39.30;;;;;;5054570;28;20200;-68
2022/05/09 08:58:39;;;;;;;4.38;4.07;;;26.60;39.30;;;;;;5055708;28;20209;-68
2022/05/09 09:01:16;;;;;;;3.78;3.47;;;26.60;39.30;;;;;;5055353;28;20191;-66
2022/05/09 09:03:48;;;;;;;4.22;3.88;;;26.60;39.20;;;;;;5055354;28;20652;-69
2022/05/09 09:06:20;;;;;;;4.10;3.70;;;26.60;39.30;;;;;;5055387;28;20191;-67
2022/05/09 09:08:57;;;;;;;4.93;3.83;;;26.60;39.30;;;;;;5055263;28;20739;-67
2022/05/09 09:11:28;;;;;;;4.25;3.85;;;26.60;39.30;;;;;;5055211;28;20201;-67
2022/05/09 09:13:59;;;;;;;3.85;3.55;;;26.60;39.30;;;;;;5055582;28;20592;-69
2022/05/09 09:16:40;;;;;;;4.07;3.60;;;26.50;39.30;;;;;;5055551;28;20188;-69
2022/05/09 09:19:42;;;;;;;4.30;3.90;;;26.40;40.00;;;;;;5054993;28;20191;-68
2022/05/09 09:22:15;;;;;;;4.05;3.72;;;26.40;39.50;;;;;;5030467;28;20222;-66
2022/05/09 09:25:01;;;;;;;4.00;3.70;;;26.40;39.50;;;;;;5054926;28;20187;-67
2022/05/09 09:27:36;;;;;;;3.75;3.45;;;26.40;39.50;;;;;;5055073;28;20198;-67
2022/05/09 09:30:10;;;;;;;4.00;3.70;;;26.30;39.60;;;;;;5054749;28;20198;-67
2022/05/09 09:32:39;;;;;;;4.03;3.72;;;26.20;39.80;;;;;;5054853;28;20215;-68
2022/05/09 09:35:09;;;;;;;4.05;3.70;;;26.10;40.00;;;;;;5054698;28;20197;-68
2022/05/09 09:37:38;;;;;;;4.20;3.80;;;26.10;40.10;;;;;;5055169;28;20660;-67
2022/05/09 09:40:06;;;;;;;3.83;3.53;;;26.00;40.70;;;;;;5054974;28;20202;-67
2022/05/09 09:42:34;;;;;;;3.90;3.60;;;25.90;40.20;;;;;;5055893;28;20219;-68
2022/05/09 09:45:03;;;;;;;3.70;3.40;;;25.90;40.40;;;;;;5055425;28;20195;-68
2022/05/09 09:47:32;;;;;;;4.10;3.75;;;25.80;40.50;;;;;;5054801;28;20656;-68
2022/05/09 09:50:13;;;;;;;4.20;3.80;;;25.70;40.60;;;;;;5054931;28;20652;-67
2022/05/09 09:52:43;;;;;;;4.30;3.90;;;25.70;40.80;;;;;;5054386;28;20291;-68
2022/05/09 09:55:20;;;;;;;4.20;3.88;;;25.60;40.90;;;;;;5054372;28;20322;-69
2022/05/09 09:57:48;;;;;;;4.35;3.95;;;25.60;41.00;;;;;;5054550;28;20192;-67
2022/05/09 10:00:19;;;;;;;3.90;3.60;;;25.50;41.00;;;;;;5054246;28;20207;-67
2022/05/09 10:02:49;;;;;;;3.97;3.60;;;25.40;41.60;;;;;;5054070;28;20238;-67
2022/05/09 10:05:17;;;;;;;3.60;3.30;;;25.40;41.10;;;;;;5054383;28;20229;-67
2022/05/09 10:07:44;;;;;;;4.57;4.18;;;25.50;41.20;;;;;;5053657;28;20191;-67
2022/05/09 10:10:13;;;;;;;4.10;3.70;;;25.50;41.10;;;;;;5054212;28;20200;-67
2022/05/09 10:12:40;;;;;;;3.60;3.30;;;25.50;41.00;;;;;;5053924;28;20230;-67
2022/05/09 10:15:24;;;;;;;3.35;3.05;;;25.50;41.00;;;;;;5053959;28;20302;-67
2022/05/09 10:17:53;;;;;;;4.00;3.70;;;25.50;41.10;;;;;;5052894;28;20649;-67
2022/05/09 10:20:27;;;;;;;4.28;3.65;;;25.50;41.10;;;;;;5054012;28;20683;-67
2022/05/09 10:25:39;;;;;;;3.33;3.13;;;25.50;41.10;;;;;;5053983;28;20190;-68
2022/05/09 10:28:10;;;;;;;3.45;3.20;;;25.50;41.00;;;;;;5053926;28;20202;-67
2022/05/09 10:30:38;;;;;;;3.70;3.38;;;25.50;41.10;;;;;;5054013;28;20199;-67
2022/05/09 10:33:10;;;;;;;3.83;3.53;;;25.50;41.10;;;;;;5053696;28;20223;-68
2022/05/09 10:35:40;;;;;;;4.03;3.70;;;25.50;41.20;;;;;;5053845;28;20198;-67
2022/05/09 10:38:11;;;;;;;3.47;3.20;;;25.40;41.30;;;;;;5054213;28;20227;-67
2022/05/09 10:40:41;;;;;;;3.78;3.40;;;25.30;41.60;;;;;;5053583;28;20588;-67
2022/05/09 10:43:11;;;;;;;3.92;3.60;;;25.30;42.50;;;;;;5053731;28;20219;-68
2022/05/09 10:45:41;;;;;;;3.70;3.40;;;25.20;42.60;;;;;;5053629;28;20220;-67
2022/05/09 10:48:12;;;;;;;3.78;3.47;;;25.10;42.10;;;;;;5054048;28;20196;-67
2022/05/09 10:50:42;;;;;;;3.72;3.42;;;25.10;42.20;;;;;;5053906;28;20234;-67
2022/05/09 10:53:11;;;;;;;3.80;3.50;;;25.10;42.20;;;;;;5076328;28;20235;-70
2022/05/09 10:55:40;;;;;;;3.80;3.50;;;25.10;42.20;;;;;;5077197;28;20190;-69
2022/05/09 10:58:10;;;;;;;3.63;3.33;;;25.00;42.20;;;;;;5054478;28;20200;-68
2022/05/09 11:00:40;;;;;;;4.30;3.90;;;25.10;42.20;;;;;;5053560;28;20195;-68
2022/05/09 11:03:12;;;;;;;3.55;3.25;;;25.10;42.30;;;;;;5076383;23;20285;-72
2022/05/09 11:05:52;;;;;;;3.63;3.30;;;25.00;42.30;;;;;;5053291;28;20249;-72
2022/05/09 11:08:24;;;;;;;4.00;3.63;;;25.00;42.30;;;;;;5053225;28;20254;-72
2022/05/09 11:10:57;;;;;;;4.60;3.78;;;25.00;42.40;;;;;;5052903;28;20676;-72
2022/05/09 11:13:26;;;;;;;3.65;3.45;;;25.00;42.50;;;;;;5052809;28;20699;-72
2022/05/09 11:16:00;;;;;;;3.80;3.50;;;25.00;42.50;;;;;;5052958;28;20272;-72
2022/05/09 11:18:46;;;;;;;3.78;3.47;;;24.90;42.40;;;;;;5053166;28;20191;-72
2022/05/09 11:21:17;;;;;;;3.53;3.22;;;24.90;42.50;;;;;;5052877;28;20250;-72
2022/05/09 11:23:48;;;;;;;3.72;3.42;;;25.00;42.50;;;;;;5052649;28;20302;-74
2022/05/09 11:26:22;;;;;;;3.78;3.50;;;25.00;42.50;;;;;;5053041;28;20596;-72
2022/05/09 11:29:20;;;;;;;4.07;3.58;;;24.90;42.50;;;;;;5052712;28;20187;-72
2022/05/09 11:32:27;;;;;;;3.85;3.55;;;24.90;42.70;;;;;;5052703;28;20290;-72
2022/05/09 11:35:23;;;;;;;3.75;3.45;;;24.90;42.70;;;;;;4956964;28;20308;-72
2022/05/09 11:38:09;;;;;;;3.67;3.40;;;24.80;42.80;;;;;;4954689;28;20225;-72
2022/05/09 11:40:38;;;;;;;3.55;3.25;;;24.80;42.80;;;;;;5029869;28;20618;-73
2022/05/09 11:43:32;;;;;;;3.55;3.30;;;24.80;42.90;;;;;;5052564;28;20302;-74
2022/05/09 11:46:09;;;;;;;3.60;3.30;;;24.70;42.80;;;;;;5052332;28;20225;-72
2022/05/09 11:48:44;;;;;;;3.33;3.13;;;24.70;42.90;;;;;;5052399;28;20574;-72
2022/05/09 11:51:17;;;;;;;3.65;3.35;;;24.70;42.90;;;;;;5052403;28;20209;-72
2022/05/09 11:53:47;;;;;;;3.38;3.08;;;24.70;42.90;;;;;;5052160;28;20219;-72
2022/05/09 11:56:14;;;;;;;3.65;3.42;;;24.70;42.90;;;;;;5052108;28;20201;-73
2022/05/09 11:58:43;;;;;;;3.53;3.25;;;24.70;42.90;;;;;;5052148;28;20210;-74
2022/05/09 12:01:10;;;;;;;3.58;3.28;;;24.70;43.60;;;;;;5052374;28;20295;-72
2022/05/09 12:04:06;;;;;;;3.63;3.38;;;24.70;43.10;;;;;;5051940;28;20250;-72
2022/05/09 12:06:42;;;;;;;3.65;3.35;;;24.60;43.10;;;;;;5052035;28;20192;-72
2022/05/09 12:09:11;;;;;;;3.70;3.40;;;24.60;43.70;;;;;;5052031;28;20207;-72
2022/05/09 12:11:50;;;;;;;3.70;3.40;;;24.60;43.10;;;;;;5051988;28;20576;-72
2022/05/09 12:14:39;;;;;;;3.17;2.97;;;24.60;43.20;;;;;;5051935;28;20561;-72
2022/05/09 12:17:35;;;;;;;3.53;3.25;;;24.60;43.20;;;;;;5051966;28;20567;-72
2022/05/09 12:20:07;;;;;;;3.95;3.65;;;24.60;43.30;;;;;;5051966;28;20199;-72
2022/05/09 12:22:47;;;;;;;3.83;3.53;;;24.60;43.40;;;;;;5051956;28;20259;-73
2022/05/09 12:25:52;;;;;;;3.70;3.40;;;24.50;43.30;;;;;;5051878;28;20659;-72
2022/05/09 12:28:23;;;;;;;3.20;3.00;;;24.50;43.30;;;;;;5039265;28;20203;-72
2022/05/09 12:30:52;;;;;;;3.60;3.30;;;24.50;44.00;;;;;;5054728;28;20203;-72
2022/05/09 12:33:25;;;;;;;3.40;3.15;;;24.50;43.50;;;;;;5055909;28;20226;-72
2022/05/09 12:35:55;;;;;;;3.42;3.20;;;24.40;43.40;;;;;;5055768;28;20219;-72
2022/05/09 12:38:24;;;;;;;3.45;3.15;;;24.50;43.50;;;;;;5055993;28;20200;-72
2022/05/09 12:41:01;;;;;;;3.30;3.10;;;24.40;43.50;;;;;;5221822;22;20231;-72
2022/05/09 12:43:29;;;;;;;3.67;3.38;;;24.40;43.50;;;;;;5055833;28;20214;-72
2022/05/09 12:45:58;;;;;;;3.28;3.08;;;24.40;43.50;;;;;;5055659;28;20196;-72
2022/05/09 12:48:25;;;;;;;3.88;3.58;;;24.40;43.60;;;;;;5055749;28;20195;-72
2022/05/09 12:50:52;;;;;;;3.55;3.25;;;24.40;43.60;;;;;;5055576;28;20206;-72
2022/05/09 12:53:20;;;;;;;3.50;3.20;;;24.30;43.50;;;;;;5055375;28;20223;-72
2022/05/09 12:55:58;;;;;;;3.42;3.22;;;24.30;43.60;;;;;;5056650;28;20214;-72
2022/05/09 12:58:29;;;;;;;3.72;3.42;;;24.30;43.60;;;;;;5056567;28;20266;-72
2022/05/09 13:00:58;;;;;;;3.60;3.30;;;24.30;43.60;;;;;;5056693;28;20231;-72
2022/05/09 13:03:25;;;;;;;3.53;3.22;;;24.30;43.70;;;;;;5055322;28;20310;-72
2022/05/09 13:05:52;;;;;;;3.47;3.17;;;24.30;43.60;;;;;;5055543;28;20575;-73
2022/05/09 13:08:19;;;;;;;3.38;3.08;;;24.30;43.70;;;;;;5055250;28;20203;-73
2022/05/09 13:10:51;;;;;;;3.83;3.50;;;24.30;43.70;;;;;;5055114;28;20195;-72
2022/05/09 13:13:25;;;;;;;3.50;3.20;;;24.30;44.30;;;;;;5055114;28;20302;-73